»·PEaware :: N9875 KDEN-KEGE

N9875 :: KDEN-KEGE

FLIGHT INFORMATION

Flight Status: Arrived
Operator: Privately registered:
United States
More flights under this callsign
Pilot: Brad M. (22842)
Aircraft: PILATUS PC-12 EAGLE
(PC12)
More flights by this aircraft type
Origin: KDEN Denver Intl
United States
Destination: KEGE Eagle Co Regl
United States
More flights between these airports :: More routes between these airports
Route: ROCKI4 RLG
File this flight plan on PilotEdge
Remarks:
Altitude:
(Current/Filed)
18,000ft
Speed:
(Current/Filed)
250kts
Departed: 02-Aug-19 09:00 AM
Arrived: 02-Aug-19 09:40 AM
Distance/Time
Traveled:
104nm/0:40
Distance/Time
To Go:
Arrived

Flight Plot

Page will automatically refresh every two minutes.

Flight plan parsing failed; only flown route is shown


Map Options




Map Legend


Flown Route
Filed Route
Departure Airport
Arrival Airport
Navaid (VOR, NDB)
Fix

Horizontal Profiles

Position Reports

Time Latitude Longitude Heading Altitude Ground
Speed
02-Aug-19 08:44 39.838715 -104.664921 180 5407ft 0kts
02-Aug-19 08:45 39.838715 -104.664921 180 5407ft 0kts
02-Aug-19 08:46 39.838715 -104.664921 180 5407ft 0kts
02-Aug-19 08:47 39.838715 -104.664921 180 5407ft 0kts
02-Aug-19 08:48 39.838715 -104.664921 180 5407ft 0kts
02-Aug-19 08:49 39.838715 -104.664921 180 5407ft 0kts
02-Aug-19 08:50 39.838698 -104.664920 174 5407ft 0kts
02-Aug-19 08:51 39.839162 -104.664429 25 5407ft 0kts
02-Aug-19 08:52 39.842223 -104.662520 356 5403ft 20kts
02-Aug-19 08:53 39.846703 -104.662454 359 5393ft 18kts
02-Aug-19 08:54 39.852107 -104.662403 1 5388ft 19kts
02-Aug-19 08:55 39.858500 -104.662315 358 5383ft 24kts
02-Aug-19 08:56 39.864751 -104.662237 359 5380ft 21kts
02-Aug-19 08:57 39.871383 -104.662159 359 5359ft 23kts
02-Aug-19 08:58 39.876351 -104.662098 357 5352ft 2kts
02-Aug-19 08:59 39.877378 -104.643002 89 5568ft 125kts
02-Aug-19 09:00 39.887179 -104.593825 71 7007ft 167kts
02-Aug-19 09:01 39.901540 -104.527629 71 8678ft 205kts
02-Aug-19 09:02 39.914518 -104.453610 71 10478ft 212kts
02-Aug-19 09:03 39.932886 -104.382772 25 12224ft 196kts
02-Aug-19 09:04 39.984802 -104.376924 356 13972ft 193kts
02-Aug-19 09:05 40.039559 -104.375328 356 15585ft 200kts
02-Aug-19 09:06 40.070362 -104.416473 269 17236ft 190kts
02-Aug-19 09:07 40.067455 -104.488357 267 18004ft 221kts
02-Aug-19 09:08 40.064970 -104.574343 268 18003ft 247kts
02-Aug-19 09:09 40.062434 -104.664717 268 18296ft 246kts
02-Aug-19 09:10 40.059789 -104.755671 268 18302ft 254kts
02-Aug-19 09:11 40.057013 -104.848643 268 18301ft 256kts
02-Aug-19 09:12 40.054170 -104.940773 268 18301ft 256kts
02-Aug-19 09:13 40.051221 -105.033983 268 18301ft 256kts
02-Aug-19 09:14 40.048334 -105.123631 268 18300ft 257kts
02-Aug-19 09:15 40.045224 -105.217006 268 18300ft 257kts
02-Aug-19 09:16 40.042049 -105.310505 268 18299ft 257kts
02-Aug-19 09:17 40.038716 -105.403990 269 18303ft 256kts
02-Aug-19 09:18 40.035624 -105.497103 269 18299ft 256kts
02-Aug-19 09:19 40.032065 -105.590281 269 18292ft 256kts
02-Aug-19 09:20 40.028697 -105.682232 269 18298ft 255kts
02-Aug-19 09:21 40.025655 -105.775433 269 18300ft 256kts
02-Aug-19 09:22 40.022725 -105.868330 269 18307ft 255kts
02-Aug-19 09:23 40.019691 -105.960986 269 18358ft 254kts
02-Aug-19 09:24 40.016561 -106.054761 269 17556ft 261kts
02-Aug-19 09:25 40.013198 -106.149631 268 16077ft 260kts
02-Aug-19 09:26 40.009958 -106.237733 269 15956ft 232kts
02-Aug-19 09:27 40.006752 -106.327183 268 14442ft 251kts
02-Aug-19 09:28 40.003441 -106.412784 268 13998ft 229kts
02-Aug-19 09:29 39.955923 -106.460197 194 14000ft 251kts
02-Aug-19 09:30 39.886882 -106.478357 193 13998ft 254kts
02-Aug-19 09:31 39.821992 -106.512705 208 13998ft 252kts
02-Aug-19 09:32 39.759057 -106.553437 208 13998ft 253kts
02-Aug-19 09:34 39.702947 -106.606996 230 13848ft 253kts
02-Aug-19 09:35 39.673837 -106.684070 254 12426ft 203kts
02-Aug-19 09:36 39.661596 -106.756405 261 10553ft 195kts
02-Aug-19 09:37 39.654377 -106.818830 260 8744ft 137kts
02-Aug-19 09:38 39.648926 -106.860481 261 7438ft 100kts
02-Aug-19 09:39 39.644613 -106.898904 261 6665ft 106kts
02-Aug-19 09:40 39.641740 -106.915124 88 6548ft 15kts
02-Aug-19 09:41 39.642081 -106.909263 170 6548ft 6kts
02-Aug-19 09:42 39.641904 -106.905845 256 6548ft 3kts
02-Aug-19 09:43 39.641901 -106.905868 258 6548ft 0kts
02-Aug-19 09:44 39.641901 -106.905868 258 6548ft 0kts
02-Aug-19 09:45 39.641901 -106.905868 258 6548ft 0kts
02-Aug-19 09:46 39.641901 -106.905868 258 6548ft 0kts
02-Aug-19 09:47 39.641901 -106.905868 258 6548ft 0kts

Navigation Log

Ident Type
Flight plan parsing failed, navigation log unavailable